sensor_id;sensor_type;location;lat;lon;timestamp;pressure;altitude;pressure_sealevel;temperature;humidity
11017;BME280;54687;50.800;6.772;2023-03-19T00:00:02;61009.06;;;-144.06;54.70
11017;BME280;54687;50.800;6.772;2023-03-19T00:02:29;61025.84;;;-144.06;54.54
11017;BME280;54687;50.800;6.772;2023-03-19T00:04:56;61009.06;;;-144.06;54.69
11017;BME280;54687;50.800;6.772;2023-03-19T00:07:48;61053.09;;;-144.06;54.75
11017;BME280;54687;50.800;6.772;2023-03-19T00:10:16;61038.41;;;-144.06;55.00
11017;BME280;54687;50.800;6.772;2023-03-19T00:12:42;61034.22;;;-144.06;54.98
11017;BME280;54687;50.800;6.772;2023-03-19T00:15:10;61027.94;;;-144.06;55.32
11017;BME280;54687;50.800;6.772;2023-03-19T00:17:38;61021.63;;;-144.06;55.29
11017;BME280;54687;50.800;6.772;2023-03-19T00:20:07;61036.31;;;-144.06;55.38
11017;BME280;54687;50.800;6.772;2023-03-19T00:22:34;61044.69;;;-144.06;55.48
11017;BME280;54687;50.800;6.772;2023-03-19T00:25:00;61053.09;;;-144.06;55.58
11017;BME280;54687;50.800;6.772;2023-03-19T00:27:28;61051.00;;;-144.06;55.82
11017;BME280;54687;50.800;6.772;2023-03-19T00:29:55;61051.00;;;-144.06;55.70
11017;BME280;54687;50.800;6.772;2023-03-19T00:32:21;61038.41;;;-144.06;55.90
11017;BME280;54687;50.800;6.772;2023-03-19T00:34:48;61021.63;;;-144.06;55.92
11017;BME280;54687;50.800;6.772;2023-03-19T00:37:15;61015.34;;;-144.06;55.77
11017;BME280;54687;50.800;6.772;2023-03-19T00:39:41;61051.00;;;-144.06;55.67
11017;BME280;54687;50.800;6.772;2023-03-19T00:42:08;61042.59;;;-144.06;55.94
11017;BME280;54687;50.800;6.772;2023-03-19T00:44:36;61063.56;;;-144.06;56.34
11017;BME280;54687;50.800;6.772;2023-03-19T00:47:03;61051.00;;;-144.06;56.42
11017;BME280;54687;50.800;6.772;2023-03-19T00:49:31;61067.75;;;-144.06;56.38
11017;BME280;54687;50.800;6.772;2023-03-19T00:51:57;61063.56;;;-144.06;56.43
11017;BME280;54687;50.800;6.772;2023-03-19T00:54:24;61021.63;;;-144.06;56.71
11017;BME280;54687;50.800;6.772;2023-03-19T00:56:50;61038.41;;;-144.06;56.76
11017;BME280;54687;50.800;6.772;2023-03-19T00:59:17;61071.94;;;-144.06;56.95
11017;BME280;54687;50.800;6.772;2023-03-19T01:01:45;61042.59;;;-144.06;57.14
11017;BME280;54687;50.800;6.772;2023-03-19T01:04:11;61034.22;;;-144.06;57.34
11017;BME280;54687;50.800;6.772;2023-03-19T01:06:39;61065.66;;;-144.06;57.46
11017;BME280;54687;50.800;6.772;2023-03-19T01:09:06;61042.59;;;-144.06;57.38
11017;BME280;54687;50.800;6.772;2023-03-19T01:11:32;61038.41;;;-144.06;57.70
11017;BME280;54687;50.800;6.772;2023-03-19T01:13:59;61046.78;;;-144.06;57.70
11017;BME280;54687;50.800;6.772;2023-03-19T01:16:26;61051.00;;;-144.06;57.86
11017;BME280;54687;50.800;6.772;2023-03-19T01:18:54;61071.94;;;-144.06;57.77
11017;BME280;54687;50.800;6.772;2023-03-19T01:21:20;61036.31;;;-144.06;57.95
11017;BME280;54687;50.800;6.772;2023-03-19T01:23:47;61025.84;;;-144.06;57.86
11017;BME280;54687;50.800;6.772;2023-03-19T01:26:16;61013.25;;;-144.06;58.06
11017;BME280;54687;50.800;6.772;2023-03-19T01:28:43;61059.38;;;-144.06;58.22
11017;BME280;54687;50.800;6.772;2023-03-19T01:31:09;61038.41;;;-144.06;58.25
11017;BME280;54687;50.800;6.772;2023-03-19T01:33:36;61103.38;;;-144.06;58.22
11017;BME280;54687;50.800;6.772;2023-03-19T01:36:04;61051.00;;;-144.06;58.30
11017;BME280;54687;50.800;6.772;2023-03-19T01:38:32;61076.13;;;-144.06;58.33
11017;BME280;54687;50.800;6.772;2023-03-19T01:40:59;61097.09;;;-144.06;57.94
11017;BME280;54687;50.800;6.772;2023-03-19T01:43:27;61038.41;;;-144.06;57.73
11017;BME280;54687;50.800;6.772;2023-03-19T01:45:57;61099.19;;;-144.06;57.91
11017;BME280;54687;50.800;6.772;2023-03-19T01:48:30;61013.25;;;-144.06;57.48
11017;BME280;54687;50.800;6.772;2023-03-19T01:50:58;61046.78;;;-144.06;57.62
11017;BME280;54687;50.800;6.772;2023-03-19T01:53:29;61063.56;;;-144.06;57.55
11017;BME280;54687;50.800;6.772;2023-03-19T01:56:02;61021.63;;;-144.06;57.86
11017;BME280;54687;50.800;6.772;2023-03-19T01:58:29;61053.09;;;-144.06;57.49
11017;BME280;54687;50.800;6.772;2023-03-19T02:00:57;61067.75;;;-144.06;57.78
11017;BME280;54687;50.800;6.772;2023-03-19T02:03:24;61071.94;;;-144.06;57.77
11017;BME280;54687;50.800;6.772;2023-03-19T02:05:52;61061.47;;;-144.06;57.51
11017;BME280;54687;50.800;6.772;2023-03-19T02:08:20;61055.19;;;-144.06;57.66
11017;BME280;54687;50.800;6.772;2023-03-19T02:10:52;61055.19;;;-144.06;57.63
11017;BME280;54687;50.800;6.772;2023-03-19T02:13:20;61046.78;;;-144.06;57.74
11017;BME280;54687;50.800;6.772;2023-03-19T02:15:47;61030.03;;;-144.06;57.65
11017;BME280;54687;50.800;6.772;2023-03-19T02:18:13;61038.41;;;-144.06;57.65
11017;BME280;54687;50.800;6.772;2023-03-19T02:20:44;61034.22;;;-144.06;57.42
11017;BME280;54687;50.800;6.772;2023-03-19T02:23:19;61034.22;;;-144.06;57.63
11017;BME280;54687;50.800;6.772;2023-03-19T02:26:00;61051.00;;;-144.06;57.49
11017;BME280;54687;50.800;6.772;2023-03-19T02:28:28;60996.50;;;-144.06;57.44
11017;BME280;54687;50.800;6.772;2023-03-19T02:30:55;61042.59;;;-144.06;57.31
11017;BME280;54687;50.800;6.772;2023-03-19T02:33:22;61040.50;;;-144.06;57.35
11017;BME280;54687;50.800;6.772;2023-03-19T02:35:50;61086.63;;;-144.06;57.46
11017;BME280;54687;50.800;6.772;2023-03-19T02:38:17;61021.63;;;-144.06;57.43
11017;BME280;54687;50.800;6.772;2023-03-19T02:40:48;61067.75;;;-144.06;57.35
11017;BME280;54687;50.800;6.772;2023-03-19T02:43:19;61023.75;;;-144.06;57.26
11017;BME280;54687;50.800;6.772;2023-03-19T02:45:47;61025.84;;;-144.06;57.12
11017;BME280;54687;50.800;6.772;2023-03-19T02:48:14;61071.94;;;-144.06;57.22
11017;BME280;54687;50.800;6.772;2023-03-19T02:50:40;61053.09;;;-144.06;57.24
11017;BME280;54687;50.800;6.772;2023-03-19T02:53:07;61061.47;;;-144.06;57.04
11017;BME280;54687;50.800;6.772;2023-03-19T02:55:34;61057.28;;;-144.06;57.30
11017;BME280;54687;50.800;6.772;2023-03-19T02:58:01;61084.53;;;-144.06;57.34
11017;BME280;54687;50.800;6.772;2023-03-19T03:00:29;61044.69;;;-144.06;57.22
11017;BME280;54687;50.800;6.772;2023-03-19T03:02:56;60983.91;;;-144.06;57.39
11017;BME280;54687;50.800;6.772;2023-03-19T03:05:23;61023.75;;;-144.06;57.21
11017;BME280;54687;50.800;6.772;2023-03-19T03:07:50;61069.84;;;-144.06;57.20
11017;BME280;54687;50.800;6.772;2023-03-19T03:10:18;61046.78;;;-144.06;57.33
11017;BME280;54687;50.800;6.772;2023-03-19T03:12:44;61048.88;;;-144.06;57.33
11017;BME280;54687;50.800;6.772;2023-03-19T03:15:11;61017.44;;;-144.06;57.44
11017;BME280;54687;50.800;6.772;2023-03-19T03:17:42;61017.44;;;-144.06;57.58
11017;BME280;54687;50.800;6.772;2023-03-19T03:20:11;61038.41;;;-144.06;57.81
11017;BME280;54687;50.800;6.772;2023-03-19T03:22:38;61063.56;;;-144.06;57.64
11017;BME280;54687;50.800;6.772;2023-03-19T03:25:05;61067.75;;;-144.06;57.63
11017;BME280;54687;50.800;6.772;2023-03-19T03:27:33;61040.50;;;-144.06;57.89
11017;BME280;54687;50.800;6.772;2023-03-19T03:30:00;61059.38;;;-144.06;57.98
11017;BME280;54687;50.800;6.772;2023-03-19T03:32:26;61069.84;;;-144.06;58.03
11017;BME280;54687;50.800;6.772;2023-03-19T03:34:54;61051.00;;;-144.06;58.03
11017;BME280;54687;50.800;6.772;2023-03-19T03:37:21;61063.56;;;-144.06;58.22
11017;BME280;54687;50.800;6.772;2023-03-19T03:39:47;61040.50;;;-144.06;58.39
11017;BME280;54687;50.800;6.772;2023-03-19T03:42:14;61032.13;;;-144.06;58.67
11017;BME280;54687;50.800;6.772;2023-03-19T03:44:40;61034.22;;;-144.06;58.86
11017;BME280;54687;50.800;6.772;2023-03-19T03:47:07;61084.53;;;-144.06;59.09
11017;BME280;54687;50.800;6.772;2023-03-19T03:49:34;61059.38;;;-144.06;59.28
11017;BME280;54687;50.800;6.772;2023-03-19T03:52:02;61067.75;;;-144.06;59.21
11017;BME280;54687;50.800;6.772;2023-03-19T03:54:29;61025.84;;;-144.06;59.03
11017;BME280;54687;50.800;6.772;2023-03-19T03:56:55;61027.94;;;-144.06;59.23
11017;BME280;54687;50.800;6.772;2023-03-19T03:59:22;61101.28;;;-144.06;59.33
11017;BME280;54687;50.800;6.772;2023-03-19T04:01:49;61036.31;;;-144.06;59.35
11017;BME280;54687;50.800;6.772;2023-03-19T04:04:16;61046.78;;;-144.06;59.49
11017;BME280;54687;50.800;6.772;2023-03-19T04:06:44;61053.09;;;-144.06;59.40
11017;BME280;54687;50.800;6.772;2023-03-19T04:09:12;61097.09;;;-144.06;59.39
11017;BME280;54687;50.800;6.772;2023-03-19T04:11:40;61055.19;;;-144.06;59.49
11017;BME280;54687;50.800;6.772;2023-03-19T04:14:06;61063.56;;;-144.06;59.74
11017;BME280;54687;50.800;6.772;2023-03-19T04:16:34;61080.34;;;-144.06;59.63
11017;BME280;54687;50.800;6.772;2023-03-19T04:19:00;61051.00;;;-144.06;59.79
11017;BME280;54687;50.800;6.772;2023-03-19T04:21:27;61080.34;;;-144.06;59.77
11017;BME280;54687;50.800;6.772;2023-03-19T04:23:54;61046.78;;;-144.06;60.00
11017;BME280;54687;50.800;6.772;2023-03-19T04:26:22;61076.13;;;-144.06;60.06
11017;BME280;54687;50.800;6.772;2023-03-19T04:28:49;61095.00;;;-144.06;59.96
11017;BME280;54687;50.800;6.772;2023-03-19T04:31:15;61059.38;;;-144.06;60.10
11017;BME280;54687;50.800;6.772;2023-03-19T04:33:42;61099.19;;;-144.06;59.82
11017;BME280;54687;50.800;6.772;2023-03-19T04:36:08;61071.94;;;-144.06;59.84
11017;BME280;54687;50.800;6.772;2023-03-19T04:38:35;61067.75;;;-144.06;59.52
11017;BME280;54687;50.800;6.772;2023-03-19T04:41:02;61118.06;;;-144.06;59.57
11017;BME280;54687;50.800;6.772;2023-03-19T04:43:30;61080.34;;;-144.06;59.36
11017;BME280;54687;50.800;6.772;2023-03-19T04:45:57;61086.63;;;-144.06;59.33
11017;BME280;54687;50.800;6.772;2023-03-19T04:48:24;61067.75;;;-144.06;59.28
11017;BME280;54687;50.800;6.772;2023-03-19T04:50:51;61120.16;;;-144.06;59.42
11017;BME280;54687;50.800;6.772;2023-03-19T04:53:21;61071.94;;;-144.06;59.46
11017;BME280;54687;50.800;6.772;2023-03-19T04:55:48;61051.00;;;-144.06;59.24
11017;BME280;54687;50.800;6.772;2023-03-19T04:58:15;61030.03;;;-144.06;58.94
11017;BME280;54687;50.800;6.772;2023-03-19T05:00:43;61076.13;;;-144.06;58.87
11017;BME280;54687;50.800;6.772;2023-03-19T05:03:11;61067.75;;;-144.06;58.98
11017;BME280;54687;50.800;6.772;2023-03-19T05:05:37;61030.03;;;-144.06;58.96
11017;BME280;54687;50.800;6.772;2023-03-19T05:08:04;61063.56;;;-144.06;58.94
11017;BME280;54687;50.800;6.772;2023-03-19T05:10:32;61038.41;;;-144.06;58.89
11017;BME280;54687;50.800;6.772;2023-03-19T05:12:58;61030.03;;;-144.06;58.69
11017;BME280;54687;50.800;6.772;2023-03-19T05:15:25;61090.81;;;-144.06;58.56
11017;BME280;54687;50.800;6.772;2023-03-19T05:17:53;61042.59;;;-144.06;58.42
11017;BME280;54687;50.800;6.772;2023-03-19T05:20:19;61055.19;;;-144.06;58.37
11017;BME280;54687;50.800;6.772;2023-03-19T05:22:46;61040.50;;;-144.06;58.39
11017;BME280;54687;50.800;6.772;2023-03-19T05:25:13;61038.41;;;-144.06;58.45
11017;BME280;54687;50.800;6.772;2023-03-19T05:27:39;61067.75;;;-144.06;58.38
11017;BME280;54687;50.800;6.772;2023-03-19T05:30:07;61021.63;;;-144.06;58.49
11017;BME280;54687;50.800;6.772;2023-03-19T05:32:33;61071.94;;;-144.06;58.32
11017;BME280;54687;50.800;6.772;2023-03-19T05:35:01;61063.56;;;-144.06;58.45
11017;BME280;54687;50.800;6.772;2023-03-19T05:37:29;61051.00;;;-144.06;58.52
11017;BME280;54687;50.800;6.772;2023-03-19T05:39:56;61067.75;;;-144.06;58.57
11017;BME280;54687;50.800;6.772;2023-03-19T05:42:22;61034.22;;;-144.06;59.01
11017;BME280;54687;50.800;6.772;2023-03-19T05:44:49;61088.72;;;-144.06;58.90
11017;BME280;54687;50.800;6.772;2023-03-19T05:47:16;61057.28;;;-144.06;59.24
11017;BME280;54687;50.800;6.772;2023-03-19T05:49:42;61042.59;;;-144.06;59.16
11017;BME280;54687;50.800;6.772;2023-03-19T05:52:10;61059.38;;;-144.06;59.27
11017;BME280;54687;50.800;6.772;2023-03-19T05:54:37;61097.09;;;-144.06;59.35
11017;BME280;54687;50.800;6.772;2023-03-19T05:57:04;61061.47;;;-144.06;59.41
11017;BME280;54687;50.800;6.772;2023-03-19T05:59:30;61105.50;;;-144.06;59.56
11017;BME280;54687;50.800;6.772;2023-03-19T06:01:57;61061.47;;;-144.06;59.35
11017;BME280;54687;50.800;6.772;2023-03-19T06:04:24;61030.03;;;-144.06;59.17
11017;BME280;54687;50.800;6.772;2023-03-19T06:06:51;61059.38;;;-144.06;59.11
11017;BME280;54687;50.800;6.772;2023-03-19T06:09:19;61067.75;;;-144.06;58.90
11017;BME280;54687;50.800;6.772;2023-03-19T06:11:45;61034.22;;;-144.06;58.91
11017;BME280;54687;50.800;6.772;2023-03-19T06:14:12;61051.00;;;-144.06;58.90
11017;BME280;54687;50.800;6.772;2023-03-19T06:16:39;61030.03;;;-144.06;59.01
11017;BME280;54687;50.800;6.772;2023-03-19T06:19:05;61067.75;;;-144.06;58.97
11017;BME280;54687;50.800;6.772;2023-03-19T06:21:32;61071.94;;;-144.06;58.95
11017;BME280;54687;50.800;6.772;2023-03-19T06:23:58;61097.09;;;-144.06;59.21
11017;BME280;54687;50.800;6.772;2023-03-19T06:26:26;61067.75;;;-144.06;59.03
11017;BME280;54687;50.800;6.772;2023-03-19T06:28:53;61030.03;;;-144.06;59.06
11017;BME280;54687;50.800;6.772;2023-03-19T06:31:19;61084.53;;;-144.06;59.40
11017;BME280;54687;50.800;6.772;2023-03-19T06:33:46;61084.53;;;-144.06;59.47
11017;BME280;54687;50.800;6.772;2023-03-19T06:36:15;61040.50;;;-144.06;59.37
11017;BME280;54687;50.800;6.772;2023-03-19T06:38:41;61063.56;;;-144.06;59.23
11017;BME280;54687;50.800;6.772;2023-03-19T06:41:08;61055.19;;;-144.06;59.35
11017;BME280;54687;50.800;6.772;2023-03-19T06:43:36;61051.00;;;-144.06;59.30
11017;BME280;54687;50.800;6.772;2023-03-19T06:46:05;61067.75;;;-144.06;59.32
11017;BME280;54687;50.800;6.772;2023-03-19T06:48:32;61038.41;;;-144.06;59.18
11017;BME280;54687;50.800;6.772;2023-03-19T06:50:59;61015.34;;;-144.06;59.25
11017;BME280;54687;50.800;6.772;2023-03-19T06:53:25;61038.41;;;-144.06;58.87
11017;BME280;54687;50.800;6.772;2023-03-19T06:55:52;61076.13;;;-144.06;58.98
11017;BME280;54687;50.800;6.772;2023-03-19T06:58:19;61046.78;;;-144.06;59.19
11017;BME280;54687;50.800;6.772;2023-03-19T07:00:47;61067.75;;;-144.06;58.88
11017;BME280;54687;50.800;6.772;2023-03-19T07:03:14;61053.09;;;-144.06;59.06
11017;BME280;54687;50.800;6.772;2023-03-19T07:05:40;61027.94;;;-144.06;58.78
11017;BME280;54687;50.800;6.772;2023-03-19T07:08:07;61051.00;;;-144.06;58.89
11017;BME280;54687;50.800;6.772;2023-03-19T07:10:36;61086.63;;;-144.06;59.18
11017;BME280;54687;50.800;6.772;2023-03-19T07:13:03;61063.56;;;-144.06;58.94
11017;BME280;54687;50.800;6.772;2023-03-19T07:15:29;61013.25;;;-144.06;58.96
11017;BME280;54687;50.800;6.772;2023-03-19T07:17:58;61055.19;;;-144.06;58.96
11017;BME280;54687;50.800;6.772;2023-03-19T07:20:25;61051.00;;;-144.06;59.18
11017;BME280;54687;50.800;6.772;2023-03-19T07:22:51;61055.19;;;-144.06;58.83
11017;BME280;54687;50.800;6.772;2023-03-19T07:25:18;61059.38;;;-144.06;59.00
11017;BME280;54687;50.800;6.772;2023-03-19T07:27:45;61025.84;;;-144.06;59.09
11017;BME280;54687;50.800;6.772;2023-03-19T07:30:13;61025.84;;;-144.06;58.96
11017;BME280;54687;50.800;6.772;2023-03-19T07:32:40;61065.66;;;-144.06;59.06
11017;BME280;54687;50.800;6.772;2023-03-19T07:35:09;61046.78;;;-144.06;58.71
11017;BME280;54687;50.800;6.772;2023-03-19T07:37:36;61065.66;;;-144.06;58.61
11017;BME280;54687;50.800;6.772;2023-03-19T07:40:03;61013.25;;;-144.06;58.45
11017;BME280;54687;50.800;6.772;2023-03-19T07:42:30;61067.75;;;-144.06;58.30
11017;BME280;54687;50.800;6.772;2023-03-19T07:44:57;61036.31;;;-144.06;58.14
11017;BME280;54687;50.800;6.772;2023-03-19T07:47:23;61080.34;;;-144.06;58.03
11017;BME280;54687;50.800;6.772;2023-03-19T07:49:50;61040.50;;;-144.06;57.95
11017;BME280;54687;50.800;6.772;2023-03-19T07:52:18;61011.16;;;-144.06;57.78
11017;BME280;54687;50.800;6.772;2023-03-19T07:54:44;61063.56;;;-144.06;57.73
11017;BME280;54687;50.800;6.772;2023-03-19T07:57:11;61038.41;;;-144.06;57.37
11017;BME280;54687;50.800;6.772;2023-03-19T07:59:37;61017.44;;;-144.06;56.78
11017;BME280;54687;50.800;6.772;2023-03-19T08:02:04;61059.38;;;-144.06;56.12
11017;BME280;54687;50.800;6.772;2023-03-19T08:04:31;61000.69;;;-144.06;55.45
11017;BME280;54687;50.800;6.772;2023-03-19T08:06:57;61013.25;;;-144.06;55.16
11017;BME280;54687;50.800;6.772;2023-03-19T08:09:26;60977.63;;;-144.06;54.50
11017;BME280;54687;50.800;6.772;2023-03-19T08:11:52;61004.88;;;-144.06;54.45
11017;BME280;54687;50.800;6.772;2023-03-19T08:14:19;60986.00;;;-144.06;54.31
11017;BME280;54687;50.800;6.772;2023-03-19T08:16:46;61042.59;;;-144.06;54.24
11017;BME280;54687;50.800;6.772;2023-03-19T08:19:13;60990.19;;;-144.06;53.79
11017;BME280;54687;50.800;6.772;2023-03-19T08:21:41;61000.69;;;-144.06;53.88
11017;BME280;54687;50.800;6.772;2023-03-19T08:24:07;61004.88;;;-144.06;53.65
11017;BME280;54687;50.800;6.772;2023-03-19T08:26:35;60956.66;;;-144.06;53.00
11017;BME280;54687;50.800;6.772;2023-03-19T08:29:02;60965.03;;;-144.06;53.08
11017;BME280;54687;50.800;6.772;2023-03-19T08:31:29;61002.78;;;-144.06;53.00
11017;BME280;54687;50.800;6.772;2023-03-19T08:33:55;60988.09;;;-144.06;52.80
11017;BME280;54687;50.800;6.772;2023-03-19T08:36:24;60975.53;;;-144.06;52.69
11017;BME280;54687;50.800;6.772;2023-03-19T08:38:51;60956.66;;;-144.06;52.55
11017;BME280;54687;50.800;6.772;2023-03-19T08:41:19;61017.44;;;-144.06;52.61
11017;BME280;54687;50.800;6.772;2023-03-19T08:43:47;60979.72;;;-144.06;52.83
11017;BME280;54687;50.800;6.772;2023-03-19T08:46:14;60954.56;;;-144.06;52.56
11017;BME280;54687;50.800;6.772;2023-03-19T08:48:40;60931.50;;;-144.06;52.45
11017;BME280;54687;50.800;6.772;2023-03-19T08:51:07;60988.09;;;-144.06;52.36
11017;BME280;54687;50.800;6.772;2023-03-19T08:53:35;60992.28;;;-144.06;52.16
11017;BME280;54687;50.800;6.772;2023-03-19T08:56:04;60990.19;;;-144.06;51.97
11017;BME280;54687;50.800;6.772;2023-03-19T08:58:32;60992.28;;;-144.06;52.03
11017;BME280;54687;50.800;6.772;2023-03-19T09:01:05;60933.59;;;-144.06;51.57
11017;BME280;54687;50.800;6.772;2023-03-19T09:03:33;60918.94;;;-144.06;51.49
11017;BME280;54687;50.800;6.772;2023-03-19T09:06:00;60975.53;;;-144.06;51.02
11017;BME280;54687;50.800;6.772;2023-03-19T09:08:28;60939.88;;;-144.06;51.07
11017;BME280;54687;50.800;6.772;2023-03-19T09:10:55;60908.44;;;-144.06;50.60
11017;BME280;54687;50.800;6.772;2023-03-19T09:13:22;60962.94;;;-144.06;50.92
11017;BME280;54687;50.800;6.772;2023-03-19T09:15:49;60927.31;;;-144.06;50.21
11017;BME280;54687;50.800;6.772;2023-03-19T09:18:17;60950.38;;;-144.06;50.50
11017;BME280;54687;50.800;6.772;2023-03-19T09:20:45;60967.13;;;-144.06;50.33
11017;BME280;54687;50.800;6.772;2023-03-19T09:23:12;60956.66;;;-144.06;49.90
11017;BME280;54687;50.800;6.772;2023-03-19T09:25:38;60950.38;;;-144.06;49.45
11017;BME280;54687;50.800;6.772;2023-03-19T09:28:05;60929.41;;;-144.06;49.70
11017;BME280;54687;50.800;6.772;2023-03-19T09:30:32;60921.03;;;-144.06;49.36
11017;BME280;54687;50.800;6.772;2023-03-19T09:32:59;60954.56;;;-144.06;49.37
11017;BME280;54687;50.800;6.772;2023-03-19T09:35:27;60893.78;;;-144.06;48.96
11017;BME280;54687;50.800;6.772;2023-03-19T09:37:55;60921.03;;;-144.06;48.56
11017;BME280;54687;50.800;6.772;2023-03-19T09:40:26;60916.84;;;-144.06;48.27
11017;BME280;54687;50.800;6.772;2023-03-19T09:42:59;60923.13;;;-144.06;47.91
11017;BME280;54687;50.800;6.772;2023-03-19T09:45:28;60931.50;;;-144.06;48.03
11017;BME280;54687;50.800;6.772;2023-03-19T09:47:58;60929.41;;;-144.06;48.39
11017;BME280;54687;50.800;6.772;2023-03-19T09:50:31;60887.47;;;-144.06;47.78
11017;BME280;54687;50.800;6.772;2023-03-19T09:53:03;60912.63;;;-144.06;47.80
11017;BME280;54687;50.800;6.772;2023-03-19T09:55:39;60891.69;;;-144.06;47.54
11017;BME280;54687;50.800;6.772;2023-03-19T09:58:12;60874.91;;;-144.06;47.56
11017;BME280;54687;50.800;6.772;2023-03-19T10:00:41;60906.34;;;-144.06;47.32
11017;BME280;54687;50.800;6.772;2023-03-19T10:03:21;60902.16;;;-144.06;47.46
11017;BME280;54687;50.800;6.772;2023-03-19T10:05:56;60914.72;;;-144.06;47.09
11017;BME280;54687;50.800;6.772;2023-03-19T10:08:40;60874.91;;;-144.06;46.70
11017;BME280;54687;50.800;6.772;2023-03-19T10:11:32;60904.25;;;-144.06;46.57
11017;BME280;54687;50.800;6.772;2023-03-19T10:14:14;60879.09;;;-144.06;46.72
11017;BME280;54687;50.800;6.772;2023-03-19T10:16:47;60891.69;;;-144.06;46.54
11017;BME280;54687;50.800;6.772;2023-03-19T10:19:20;60858.13;;;-144.06;46.92
11017;BME280;54687;50.800;6.772;2023-03-19T10:21:53;60879.09;;;-144.06;45.96
11017;BME280;54687;50.800;6.772;2023-03-19T10:24:23;60830.88;;;-144.06;45.37
11017;BME280;54687;50.800;6.772;2023-03-19T10:26:57;60858.13;;;-144.06;44.58
11017;BME280;54687;50.800;6.772;2023-03-19T10:29:24;60879.09;;;-144.06;45.01
11017;BME280;54687;50.800;6.772;2023-03-19T10:31:59;60904.25;;;-144.06;44.79
11017;BME280;54687;50.800;6.772;2023-03-19T10:34:30;60916.84;;;-144.06;44.87
11017;BME280;54687;50.800;6.772;2023-03-19T10:37:00;60923.13;;;-144.06;44.41
11017;BME280;54687;50.800;6.772;2023-03-19T10:39:30;60853.94;;;-144.06;44.79
11017;BME280;54687;50.800;6.772;2023-03-19T10:42:06;60866.53;;;-144.06;44.88
11017;BME280;54687;50.800;6.772;2023-03-19T10:44:41;60870.72;;;-144.06;45.27
11017;BME280;54687;50.800;6.772;2023-03-19T10:47:12;60866.53;;;-144.06;45.46
11017;BME280;54687;50.800;6.772;2023-03-19T10:49:39;60883.28;;;-144.06;45.76
11017;BME280;54687;50.800;6.772;2023-03-19T10:52:16;60904.25;;;-144.06;46.16
11017;BME280;54687;50.800;6.772;2023-03-19T10:54:44;60912.63;;;-144.06;46.43
11017;BME280;54687;50.800;6.772;2023-03-19T10:57:20;60872.81;;;-144.06;45.69
11017;BME280;54687;50.800;6.772;2023-03-19T10:59:48;60856.03;;;-144.06;44.92
11017;BME280;54687;50.800;6.772;2023-03-19T11:02:16;60826.69;;;-144.06;45.28
11017;BME280;54687;50.800;6.772;2023-03-19T11:04:43;60879.09;;;-144.06;46.29
11017;BME280;54687;50.800;6.772;2023-03-19T11:07:13;60864.44;;;-144.06;45.77
11017;BME280;54687;50.800;6.772;2023-03-19T11:09:45;60839.28;;;-144.06;45.25
11017;BME280;54687;50.800;6.772;2023-03-19T11:12:21;60881.19;;;-144.06;45.38
11017;BME280;54687;50.800;6.772;2023-03-19T11:14:50;60845.56;;;-144.06;44.41
11017;BME280;54687;50.800;6.772;2023-03-19T11:17:21;60812.03;;;-144.06;44.40
11017;BME280;54687;50.800;6.772;2023-03-19T11:19:50;60803.66;;;-144.06;43.70
11017;BME280;54687;50.800;6.772;2023-03-19T11:22:22;60843.47;;;-144.06;42.89
11017;BME280;54687;50.800;6.772;2023-03-19T11:24:52;60853.94;;;-144.06;42.63
11017;BME280;54687;50.800;6.772;2023-03-19T11:27:26;60833.00;;;-144.06;42.50
11017;BME280;54687;50.800;6.772;2023-03-19T11:29:54;60828.78;;;-144.06;42.32
11017;BME280;54687;50.800;6.772;2023-03-19T11:32:50;60814.13;;;-144.06;42.58
11017;BME280;54687;50.800;6.772;2023-03-19T11:35:24;60824.59;;;-144.06;41.96
11017;BME280;54687;50.800;6.772;2023-03-19T11:37:56;60768.00;;;-144.06;41.79
11017;BME280;54687;50.800;6.772;2023-03-19T11:40:33;60833.00;;;-144.06;42.01
11017;BME280;54687;50.800;6.772;2023-03-19T11:46:08;60833.00;;;-144.06;42.65
11017;BME280;54687;50.800;6.772;2023-03-19T11:49:02;60833.00;;;-144.06;41.65
11017;BME280;54687;50.800;6.772;2023-03-19T11:51:37;60841.38;;;-144.06;41.89
11017;BME280;54687;50.800;6.772;2023-03-19T11:54:16;60872.81;;;-144.06;41.19
11017;BME280;54687;50.800;6.772;2023-03-19T11:56:49;60864.44;;;-144.06;40.76
11017;BME280;54687;50.800;6.772;2023-03-19T11:59:36;60820.41;;;-144.06;39.50
11017;BME280;54687;50.800;6.772;2023-03-19T12:02:29;60828.78;;;-144.06;38.33
11017;BME280;54687;50.800;6.772;2023-03-19T12:05:12;60791.06;;;-144.06;38.72
11017;BME280;54687;50.800;6.772;2023-03-19T12:07:48;60814.13;;;-144.06;38.24
11017;BME280;54687;50.800;6.772;2023-03-19T12:10:27;60778.50;;;-144.06;37.95
11017;BME280;54687;50.800;6.772;2023-03-19T12:13:02;60795.25;;;-144.06;38.63
11017;BME280;54687;50.800;6.772;2023-03-19T12:15:38;60784.78;;;-144.06;38.71
11017;BME280;54687;50.800;6.772;2023-03-19T12:18:18;60799.44;;;-144.06;38.83
11017;BME280;54687;50.800;6.772;2023-03-19T12:20:53;60803.66;;;-144.06;38.90
11017;BME280;54687;50.800;6.772;2023-03-19T12:23:34;60801.53;;;-144.06;39.18
11017;BME280;54687;50.800;6.772;2023-03-19T12:26:06;60824.59;;;-144.06;39.39
11017;BME280;54687;50.800;6.772;2023-03-19T12:28:38;60816.22;;;-144.06;39.69
11017;BME280;54687;50.800;6.772;2023-03-19T12:31:26;60853.94;;;-144.06;40.08
11017;BME280;54687;50.800;6.772;2023-03-19T12:34:03;60830.88;;;-144.06;40.74
11017;BME280;54687;50.800;6.772;2023-03-19T12:36:38;60833.00;;;-144.06;41.14
11017;BME280;54687;50.800;6.772;2023-03-19T12:39:11;60803.66;;;-144.06;41.11
11017;BME280;54687;50.800;6.772;2023-03-19T12:41:42;60803.66;;;-144.06;41.46
11017;BME280;54687;50.800;6.772;2023-03-19T12:44:17;60918.94;;;-144.06;42.01
11017;BME280;54687;50.800;6.772;2023-03-19T12:46:49;60830.88;;;-144.06;42.75
11017;BME280;54687;50.800;6.772;2023-03-19T12:49:24;60845.56;;;-144.06;42.92
11017;BME280;54687;50.800;6.772;2023-03-19T12:51:58;60856.03;;;-144.06;42.88